sensor_id;sensor_type;location;lat;lon;timestamp;pressure;altitude;pressure_sealevel;temperature;humidity
34374;BME280;20637;55.770;37.592;2022-12-13T00:00:07;98643.09;;;2.91;85.65
34374;BME280;20637;55.770;37.592;2022-12-13T00:02:37;98634.72;;;2.85;85.57
34374;BME280;20637;55.770;37.592;2022-12-13T00:05:03;98641.16;;;2.83;85.64
34374;BME280;20637;55.770;37.592;2022-12-13T00:07:28;98637.81;;;2.81;85.53
34374;BME280;20637;55.770;37.592;2022-12-13T00:09:54;98631.47;;;2.82;85.75
34374;BME280;20637;55.770;37.592;2022-12-13T00:12:21;98635.16;;;2.81;85.83
34374;BME280;20637;55.770;37.592;2022-12-13T00:14:46;98642.84;;;2.84;85.97
34374;BME280;20637;55.770;37.592;2022-12-13T00:17:11;98650.44;;;2.88;85.92
34374;BME280;20637;55.770;37.592;2022-12-13T00:19:37;98655.34;;;2.93;85.97
34374;BME280;20637;55.770;37.592;2022-12-13T00:22:02;98641.84;;;2.95;86.03
34374;BME280;20637;55.770;37.592;2022-12-13T00:24:28;98644.94;;;2.90;85.64
34374;BME280;20637;55.770;37.592;2022-12-13T00:26:53;98650.25;;;2.90;85.69
34374;BME280;20637;55.770;37.592;2022-12-13T00:29:19;98643.53;;;2.96;85.73
34374;BME280;20637;55.770;37.592;2022-12-13T00:31:45;98644.63;;;3.03;86.20
34374;BME280;20637;55.770;37.592;2022-12-13T00:34:10;98643.78;;;3.02;85.90
34374;BME280;20637;55.770;37.592;2022-12-13T00:36:36;98648.56;;;2.99;85.76
34374;BME280;20637;55.770;37.592;2022-12-13T00:39:01;98650.56;;;2.97;85.87
34374;BME280;20637;55.770;37.592;2022-12-13T00:41:27;98640.72;;;2.97;85.73
34374;BME280;20637;55.770;37.592;2022-12-13T00:43:54;98645.22;;;2.97;85.77
34374;BME280;20637;55.770;37.592;2022-12-13T00:46:20;98642.38;;;2.98;86.09
34374;BME280;20637;55.770;37.592;2022-12-13T00:48:48;98642.25;;;3.00;86.01
34374;BME280;20637;55.770;37.592;2022-12-13T00:51:14;98639.72;;;2.98;86.02
34374;BME280;20637;55.770;37.592;2022-12-13T00:53:40;98628.38;;;2.96;85.82
34374;BME280;20637;55.770;37.592;2022-12-13T00:56:10;98636.09;;;2.99;85.93
34374;BME280;20637;55.770;37.592;2022-12-13T00:58:36;98634.13;;;3.01;85.99
34374;BME280;20637;55.770;37.592;2022-12-13T01:01:05;98644.06;;;3.09;86.24
34374;BME280;20637;55.770;37.592;2022-12-13T01:03:31;98651.66;;;3.04;85.97
34374;BME280;20637;55.770;37.592;2022-12-13T01:05:57;98636.94;;;3.00;86.41
34374;BME280;20637;55.770;37.592;2022-12-13T01:08:23;98649.97;;;3.03;86.45
34374;BME280;20637;55.770;37.592;2022-12-13T01:10:48;98645.91;;;2.99;86.10
34374;BME280;20637;55.770;37.592;2022-12-13T01:13:14;98643.22;;;2.99;86.57
34374;BME280;20637;55.770;37.592;2022-12-13T01:15:42;98627.41;;;2.97;86.05
34374;BME280;20637;55.770;37.592;2022-12-13T01:18:09;98622.88;;;2.98;86.56
34374;BME280;20637;55.770;37.592;2022-12-13T01:20:34;98625.00;;;3.04;86.31
34374;BME280;20637;55.770;37.592;2022-12-13T01:23:00;98618.94;;;3.11;86.82
34374;BME280;20637;55.770;37.592;2022-12-13T01:25:25;98633.78;;;3.14;86.39
34374;BME280;20637;55.770;37.592;2022-12-13T01:27:50;98629.59;;;3.11;86.49
34374;BME280;20637;55.770;37.592;2022-12-13T01:30:16;98646.03;;;3.07;86.28
34374;BME280;20637;55.770;37.592;2022-12-13T01:32:41;98642.38;;;2.98;86.41
34374;BME280;20637;55.770;37.592;2022-12-13T01:35:07;98637.22;;;2.97;86.26
34374;BME280;20637;55.770;37.592;2022-12-13T01:37:32;98631.34;;;2.93;86.62
34374;BME280;20637;55.770;37.592;2022-12-13T01:39:58;98625.41;;;2.99;86.58
34374;BME280;20637;55.770;37.592;2022-12-13T01:42:23;98624.44;;;3.00;86.98
34374;BME280;20637;55.770;37.592;2022-12-13T01:49:59;98639.28;;;3.03;86.94
34374;BME280;20637;55.770;37.592;2022-12-13T01:52:29;98640.13;;;3.03;86.70
34374;BME280;20637;55.770;37.592;2022-12-13T01:54:56;98642.66;;;3.05;87.18
34374;BME280;20637;55.770;37.592;2022-12-13T01:57:24;98642.66;;;3.05;87.04
34374;BME280;20637;55.770;37.592;2022-12-13T01:59:50;98637.59;;;3.02;86.96
34374;BME280;20637;55.770;37.592;2022-12-13T02:02:17;98640.56;;;2.99;86.75
34374;BME280;20637;55.770;37.592;2022-12-13T02:07:14;98645.59;;;3.02;87.00
34374;BME280;20637;55.770;37.592;2022-12-13T02:09:40;98652.63;;;3.03;87.07
34374;BME280;20637;55.770;37.592;2022-12-13T02:12:07;98641.81;;;3.04;86.98
34374;BME280;20637;55.770;37.592;2022-12-13T02:14:33;98634.38;;;3.08;87.16
34374;BME280;20637;55.770;37.592;2022-12-13T02:24:50;98639.28;;;3.12;86.89
34374;BME280;20637;55.770;37.592;2022-12-13T02:30:10;98633.25;;;3.10;87.33
34374;BME280;20637;55.770;37.592;2022-12-13T02:32:38;98646.56;;;3.10;86.84
34374;BME280;20637;55.770;37.592;2022-12-13T02:35:16;98643.59;;;3.13;86.96
34374;BME280;20637;55.770;37.592;2022-12-13T02:40:46;98639.41;;;3.11;87.41
34374;BME280;20637;55.770;37.592;2022-12-13T02:43:22;98635.06;;;3.10;87.04
34374;BME280;20637;55.770;37.592;2022-12-13T02:45:50;98636.50;;;3.04;87.06
34374;BME280;20637;55.770;37.592;2022-12-13T02:48:18;98641.53;;;3.07;87.32
34374;BME280;20637;55.770;37.592;2022-12-13T02:50:45;98652.50;;;3.04;87.07
34374;BME280;20637;55.770;37.592;2022-12-13T02:53:11;98640.00;;;3.05;87.03
34374;BME280;20637;55.770;37.592;2022-12-13T02:55:37;98647.53;;;3.09;87.20
34374;BME280;20637;55.770;37.592;2022-12-13T02:58:03;98642.75;;;3.13;87.20
34374;BME280;20637;55.770;37.592;2022-12-13T03:06:27;98645.44;;;3.13;87.37
34374;BME280;20637;55.770;37.592;2022-12-13T03:09:09;98646.97;;;3.15;87.33
34374;BME280;20637;55.770;37.592;2022-12-13T03:11:52;98644.03;;;3.18;87.16
34374;BME280;20637;55.770;37.592;2022-12-13T03:14:38;98641.75;;;3.23;87.05
34374;BME280;20637;55.770;37.592;2022-12-13T03:17:05;98645.53;;;3.21;87.34
34374;BME280;20637;55.770;37.592;2022-12-13T03:19:32;98642.06;;;3.20;86.84
34374;BME280;20637;55.770;37.592;2022-12-13T03:21:57;98648.06;;;3.22;87.12
34374;BME280;20637;55.770;37.592;2022-12-13T03:24:23;98652.72;;;3.20;87.00
34374;BME280;20637;55.770;37.592;2022-12-13T03:26:48;98642.50;;;3.16;86.85
34374;BME280;20637;55.770;37.592;2022-12-13T03:29:14;98649.47;;;3.17;87.18
34374;BME280;20637;55.770;37.592;2022-12-13T03:31:40;98658.88;;;3.21;86.74
34374;BME280;20637;55.770;37.592;2022-12-13T03:34:06;98648.50;;;3.18;87.11
34374;BME280;20637;55.770;37.592;2022-12-13T03:36:31;98648.94;;;3.13;86.99
34374;BME280;20637;55.770;37.592;2022-12-13T03:38:56;98650.22;;;3.09;86.54
34374;BME280;20637;55.770;37.592;2022-12-13T03:41:23;98645.88;;;3.08;86.46
34374;BME280;20637;55.770;37.592;2022-12-13T03:43:56;98655.72;;;3.08;86.49
34374;BME280;20637;55.770;37.592;2022-12-13T03:46:21;98650.50;;;3.06;86.65
34374;BME280;20637;55.770;37.592;2022-12-13T03:48:46;98657.97;;;3.03;86.32
34374;BME280;20637;55.770;37.592;2022-12-13T03:51:12;98655.28;;;3.03;86.46
34374;BME280;20637;55.770;37.592;2022-12-13T03:53:37;98654.44;;;3.02;86.79
34374;BME280;20637;55.770;37.592;2022-12-13T03:56:04;98651.09;;;3.00;86.36
34374;BME280;20637;55.770;37.592;2022-12-13T03:58:30;98660.06;;;2.99;86.58
34374;BME280;20637;55.770;37.592;2022-12-13T04:00:55;98647.03;;;2.96;86.60
34374;BME280;20637;55.770;37.592;2022-12-13T04:03:21;98644.38;;;2.96;86.37
34374;BME280;20637;55.770;37.592;2022-12-13T04:05:46;98640.88;;;2.96;86.68
34374;BME280;20637;55.770;37.592;2022-12-13T04:08:11;98642.56;;;2.97;86.39
34374;BME280;20637;55.770;37.592;2022-12-13T04:10:37;98641.72;;;2.96;86.42
34374;BME280;20637;55.770;37.592;2022-12-13T04:13:04;98654.75;;;2.99;86.44
34374;BME280;20637;55.770;37.592;2022-12-13T04:15:48;98657.13;;;3.02;86.50
34374;BME280;20637;55.770;37.592;2022-12-13T04:18:16;98653.91;;;2.99;86.78
34374;BME280;20637;55.770;37.592;2022-12-13T04:20:42;98658.69;;;2.95;86.34
34374;BME280;20637;55.770;37.592;2022-12-13T04:23:08;98653.63;;;2.92;86.61
34374;BME280;20637;55.770;37.592;2022-12-13T04:25:33;98653.09;;;2.88;86.46
34374;BME280;20637;55.770;37.592;2022-12-13T04:27:59;98657.72;;;2.86;86.51
34374;BME280;20637;55.770;37.592;2022-12-13T04:30:24;98658.41;;;2.88;86.92
34374;BME280;20637;55.770;37.592;2022-12-13T04:32:49;98666.25;;;2.90;86.94
34374;BME280;20637;55.770;37.592;2022-12-13T04:35:15;98671.75;;;2.88;86.81
34374;BME280;20637;55.770;37.592;2022-12-13T04:37:40;98665.44;;;2.90;86.62
34374;BME280;20637;55.770;37.592;2022-12-13T04:40:06;98669.94;;;2.89;86.82
34374;BME280;20637;55.770;37.592;2022-12-13T04:42:31;98673.44;;;2.90;87.12
34374;BME280;20637;55.770;37.592;2022-12-13T04:44:57;98664.84;;;2.86;87.02
34374;BME280;20637;55.770;37.592;2022-12-13T04:47:22;98663.31;;;2.83;87.17
34374;BME280;20637;55.770;37.592;2022-12-13T04:49:48;98650.13;;;2.82;87.17
34374;BME280;20637;55.770;37.592;2022-12-13T04:52:13;98661.50;;;2.84;87.29
34374;BME280;20637;55.770;37.592;2022-12-13T04:54:38;98661.09;;;2.88;87.36
34374;BME280;20637;55.770;37.592;2022-12-13T04:57:04;98670.31;;;2.94;87.41
34374;BME280;20637;55.770;37.592;2022-12-13T04:59:30;98659.22;;;2.99;87.59
34374;BME280;20637;55.770;37.592;2022-12-13T05:01:56;98670.16;;;3.05;87.33
34374;BME280;20637;55.770;37.592;2022-12-13T05:04:21;98669.16;;;3.06;87.40
34374;BME280;20637;55.770;37.592;2022-12-13T05:06:46;98673.53;;;3.07;87.63
34374;BME280;20637;55.770;37.592;2022-12-13T05:09:12;98670.56;;;3.10;87.69
34374;BME280;20637;55.770;37.592;2022-12-13T05:11:37;98676.31;;;3.15;87.44
34374;BME280;20637;55.770;37.592;2022-12-13T05:14:03;98672.50;;;3.18;87.56
34374;BME280;20637;55.770;37.592;2022-12-13T05:16:28;98670.81;;;3.17;87.38
34374;BME280;20637;55.770;37.592;2022-12-13T05:18:53;98676.00;;;3.18;87.73
34374;BME280;20637;55.770;37.592;2022-12-13T05:21:19;98665.06;;;3.21;87.70
34374;BME280;20637;55.770;37.592;2022-12-13T05:23:44;98670.09;;;3.24;87.71
34374;BME280;20637;55.770;37.592;2022-12-13T05:26:09;98661.41;;;3.22;87.58
34374;BME280;20637;55.770;37.592;2022-12-13T05:28:35;98677.84;;;3.18;87.67
34374;BME280;20637;55.770;37.592;2022-12-13T05:31:05;98670.00;;;3.16;87.63
34374;BME280;20637;55.770;37.592;2022-12-13T05:33:31;98680.66;;;3.16;87.17
34374;BME280;20637;55.770;37.592;2022-12-13T05:35:56;98675.72;;;3.21;87.21
34374;BME280;20637;55.770;37.592;2022-12-13T05:38:22;98686.94;;;3.25;87.78
34374;BME280;20637;55.770;37.592;2022-12-13T05:40:47;98683.00;;;3.29;87.33
34374;BME280;20637;55.770;37.592;2022-12-13T05:43:12;98688.06;;;3.32;87.47
34374;BME280;20637;55.770;37.592;2022-12-13T05:45:38;98689.72;;;3.33;87.44
34374;BME280;20637;55.770;37.592;2022-12-13T05:48:03;98683.00;;;3.29;87.57
34374;BME280;20637;55.770;37.592;2022-12-13T05:50:30;98684.97;;;3.27;87.51
34374;BME280;20637;55.770;37.592;2022-12-13T05:52:55;98688.88;;;3.32;87.30
34374;BME280;20637;55.770;37.592;2022-12-13T05:55:21;98676.09;;;3.36;87.41
34374;BME280;20637;55.770;37.592;2022-12-13T05:57:46;98685.47;;;3.40;87.22
34374;BME280;20637;55.770;37.592;2022-12-13T06:00:12;98678.19;;;3.42;87.33
34374;BME280;20637;55.770;37.592;2022-12-13T06:02:41;98680.00;;;3.42;87.28
34374;BME280;20637;55.770;37.592;2022-12-13T06:05:07;98685.22;;;3.43;86.97
34374;BME280;20637;55.770;37.592;2022-12-13T06:07:34;98686.72;;;3.46;87.55
34374;BME280;20637;55.770;37.592;2022-12-13T06:10:00;98680.41;;;3.47;87.46
34374;BME280;20637;55.770;37.592;2022-12-13T06:12:25;98684.06;;;3.46;86.92
34374;BME280;20637;55.770;37.592;2022-12-13T06:14:51;98688.72;;;3.44;87.24
34374;BME280;20637;55.770;37.592;2022-12-13T06:17:16;98689.28;;;3.47;86.82
34374;BME280;20637;55.770;37.592;2022-12-13T06:19:42;98682.06;;;3.48;87.21
34374;BME280;20637;55.770;37.592;2022-12-13T06:22:08;98684.63;;;3.49;87.25
34374;BME280;20637;55.770;37.592;2022-12-13T06:24:33;98680.25;;;3.48;86.83
34374;BME280;20637;55.770;37.592;2022-12-13T06:26:59;98681.09;;;3.49;86.89
34374;BME280;20637;55.770;37.592;2022-12-13T06:29:24;98681.63;;;3.52;86.63
34374;BME280;20637;55.770;37.592;2022-12-13T06:31:54;98686.13;;;3.52;86.54
34374;BME280;20637;55.770;37.592;2022-12-13T06:34:20;98683.31;;;3.53;87.21
34374;BME280;20637;55.770;37.592;2022-12-13T06:36:45;98687.53;;;3.56;86.56
34374;BME280;20637;55.770;37.592;2022-12-13T06:39:10;98690.91;;;3.58;86.51
34374;BME280;20637;55.770;37.592;2022-12-13T06:41:36;98703.94;;;3.61;87.14
34374;BME280;20637;55.770;37.592;2022-12-13T06:44:01;98705.22;;;3.57;86.81
34374;BME280;20637;55.770;37.592;2022-12-13T06:46:27;98709.88;;;3.55;86.42
34374;BME280;20637;55.770;37.592;2022-12-13T06:48:52;98710.84;;;3.54;86.74
34374;BME280;20637;55.770;37.592;2022-12-13T06:51:18;98721.53;;;3.54;86.93
34374;BME280;20637;55.770;37.592;2022-12-13T06:53:43;98718.56;;;3.57;86.63
34374;BME280;20637;55.770;37.592;2022-12-13T06:56:13;98719.94;;;3.61;86.52
34374;BME280;20637;55.770;37.592;2022-12-13T06:58:39;98746.34;;;3.64;86.70
34374;BME280;20637;55.770;37.592;2022-12-13T07:01:05;98750.56;;;3.66;86.91
34374;BME280;20637;55.770;37.592;2022-12-13T07:03:32;98747.91;;;3.66;86.88
34374;BME280;20637;55.770;37.592;2022-12-13T07:05:58;98747.03;;;3.66;86.49
34374;BME280;20637;55.770;37.592;2022-12-13T07:08:24;98755.06;;;3.66;86.25
34374;BME280;20637;55.770;37.592;2022-12-13T07:10:50;98749.00;;;3.64;86.55
34374;BME280;20637;55.770;37.592;2022-12-13T07:13:18;98756.03;;;3.65;86.12
34374;BME280;20637;55.770;37.592;2022-12-13T07:15:45;98751.84;;;3.62;86.17
34374;BME280;20637;55.770;37.592;2022-12-13T07:18:10;98759.97;;;3.61;86.70
34374;BME280;20637;55.770;37.592;2022-12-13T07:20:37;98760.22;;;3.67;86.40
34374;BME280;20637;55.770;37.592;2022-12-13T07:23:03;98760.09;;;3.69;86.30
34374;BME280;20637;55.770;37.592;2022-12-13T07:25:28;98755.72;;;3.68;86.24
34374;BME280;20637;55.770;37.592;2022-12-13T07:27:54;98756.44;;;3.70;86.66
34374;BME280;20637;55.770;37.592;2022-12-13T07:30:20;98769.34;;;3.74;86.07
34374;BME280;20637;55.770;37.592;2022-12-13T07:32:46;98771.31;;;3.72;86.41
34374;BME280;20637;55.770;37.592;2022-12-13T07:35:12;98762.47;;;3.72;86.22
34374;BME280;20637;55.770;37.592;2022-12-13T07:37:37;98768.78;;;3.71;86.44
34374;BME280;20637;55.770;37.592;2022-12-13T07:40:03;98762.91;;;3.67;86.06
34374;BME280;20637;55.770;37.592;2022-12-13T07:42:28;98781.44;;;3.69;86.64
34374;BME280;20637;55.770;37.592;2022-12-13T07:44:54;98776.66;;;3.72;86.75
34374;BME280;20637;55.770;37.592;2022-12-13T07:47:19;98778.63;;;3.70;86.32
34374;BME280;20637;55.770;37.592;2022-12-13T07:49:45;98783.69;;;3.73;86.29
34374;BME280;20637;55.770;37.592;2022-12-13T07:52:10;98782.97;;;3.71;86.86
34374;BME280;20637;55.770;37.592;2022-12-13T07:54:35;98781.44;;;3.69;86.49
34374;BME280;20637;55.770;37.592;2022-12-13T07:57:01;98782.84;;;3.63;86.88
34374;BME280;20637;55.770;37.592;2022-12-13T07:59:26;98774.16;;;3.61;86.96
34374;BME280;20637;55.770;37.592;2022-12-13T08:01:52;98779.50;;;3.61;86.70
34374;BME280;20637;55.770;37.592;2022-12-13T08:04:17;98778.09;;;3.57;86.80
34374;BME280;20637;55.770;37.592;2022-12-13T08:06:43;98776.41;;;3.56;86.98
34374;BME280;20637;55.770;37.592;2022-12-13T08:09:08;98773.75;;;3.56;87.30
34374;BME280;20637;55.770;37.592;2022-12-13T08:11:34;98781.63;;;3.58;87.21
34374;BME280;20637;55.770;37.592;2022-12-13T08:13:59;98784.84;;;3.61;87.34
34374;BME280;20637;55.770;37.592;2022-12-13T08:16:25;98793.81;;;3.60;87.53
34374;BME280;20637;55.770;37.592;2022-12-13T08:18:51;98800.84;;;3.61;87.65
34374;BME280;20637;55.770;37.592;2022-12-13T08:21:16;98802.97;;;3.58;87.66
34374;BME280;20637;55.770;37.592;2022-12-13T08:23:41;98798.31;;;3.60;87.66
34374;BME280;20637;55.770;37.592;2022-12-13T08:26:07;98800.13;;;3.59;87.88
34374;BME280;20637;55.770;37.592;2022-12-13T08:28:33;98792.00;;;3.61;88.31
34374;BME280;20637;55.770;37.592;2022-12-13T08:31:03;98800.44;;;3.56;87.92
34374;BME280;20637;55.770;37.592;2022-12-13T08:33:29;98803.94;;;3.57;87.73
34374;BME280;20637;55.770;37.592;2022-12-13T08:35:54;98799.47;;;3.48;87.88
34374;BME280;20637;55.770;37.592;2022-12-13T08:38:20;98802.28;;;3.46;88.02
34374;BME280;20637;55.770;37.592;2022-12-13T08:40:45;98804.78;;;3.48;88.15
34374;BME280;20637;55.770;37.592;2022-12-13T08:43:10;98805.63;;;3.48;88.32
34374;BME280;20637;55.770;37.592;2022-12-13T08:45:36;98814.66;;;3.47;88.57
34374;BME280;20637;55.770;37.592;2022-12-13T08:48:01;98820.25;;;3.44;88.58
34374;BME280;20637;55.770;37.592;2022-12-13T08:50:27;98822.38;;;3.41;88.71
34374;BME280;20637;55.770;37.592;2022-12-13T08:52:53;98821.53;;;3.40;88.17
34374;BME280;20637;55.770;37.592;2022-12-13T08:55:19;98821.38;;;3.42;88.59
34374;BME280;20637;55.770;37.592;2022-12-13T08:57:44;98822.91;;;3.44;88.48
34374;BME280;20637;55.770;37.592;2022-12-13T09:00:11;98821.81;;;3.47;88.62
34374;BME280;20637;55.770;37.592;2022-12-13T09:02:37;98830.38;;;3.50;89.03
34374;BME280;20637;55.770;37.592;2022-12-13T09:05:03;98835.13;;;3.56;88.95
34374;BME280;20637;55.770;37.592;2022-12-13T09:07:28;98842.56;;;3.53;88.62
34374;BME280;20637;55.770;37.592;2022-12-13T09:09:54;98843.16;;;3.47;88.29
34374;BME280;20637;55.770;37.592;2022-12-13T09:12:21;98844.97;;;3.46;88.58
34374;BME280;20637;55.770;37.592;2022-12-13T09:14:47;98847.22;;;3.41;88.27
34374;BME280;20637;55.770;37.592;2022-12-13T09:17:13;98849.19;;;3.29;88.79
34374;BME280;20637;55.770;37.592;2022-12-13T09:19:39;98851.03;;;3.19;88.38
34374;BME280;20637;55.770;37.592;2022-12-13T09:22:05;98853.56;;;3.11;88.65
34374;BME280;20637;55.770;37.592;2022-12-13T09:24:30;98870.09;;;3.05;88.54
34374;BME280;20637;55.770;37.592;2022-12-13T09:26:56;98854.38;;;3.02;88.62
34374;BME280;20637;55.770;37.592;2022-12-13T09:29:21;98873.06;;;3.02;88.67
34374;BME280;20637;55.770;37.592;2022-12-13T09:31:46;98873.06;;;3.02;88.68
34374;BME280;20637;55.770;37.592;2022-12-13T09:34:12;98872.91;;;3.04;88.56
34374;BME280;20637;55.770;37.592;2022-12-13T09:36:37;98872.06;;;3.03;88.78
34374;BME280;20637;55.770;37.592;2022-12-13T09:39:03;98877.97;;;3.07;88.95
34374;BME280;20637;55.770;37.592;2022-12-13T09:43:55;98877.97;;;3.07;88.91
34374;BME280;20637;55.770;37.592;2022-12-13T09:46:24;98883.88;;;3.10;88.95
34374;BME280;20637;55.770;37.592;2022-12-13T09:48:51;98873.06;;;3.12;89.03
34374;BME280;20637;55.770;37.592;2022-12-13T09:51:19;98868.28;;;3.15;88.98
34374;BME280;20637;55.770;37.592;2022-12-13T09:53:46;98870.69;;;3.18;89.06
34374;BME280;20637;55.770;37.592;2022-12-13T09:56:13;98879.25;;;3.22;88.93
34374;BME280;20637;55.770;37.592;2022-12-13T09:58:39;98871.66;;;3.27;88.86
34374;BME280;20637;55.770;37.592;2022-12-13T10:01:05;98877.97;;;3.26;88.52
34374;BME280;20637;55.770;37.592;2022-12-13T10:03:30;98880.94;;;3.23;88.47
34374;BME280;20637;55.770;37.592;2022-12-13T10:05:56;98877.53;;;3.21;87.99
34374;BME280;20637;55.770;37.592;2022-12-13T10:08:24;98885.72;;;3.19;88.27
34374;BME280;20637;55.770;37.592;2022-12-13T10:10:52;98891.03;;;3.19;87.96
34374;BME280;20637;55.770;37.592;2022-12-13T10:13:32;98893.28;;;3.14;87.91
34374;BME280;20637;55.770;37.592;2022-12-13T10:16:05;98888.91;;;3.13;87.79
34374;BME280;20637;55.770;37.592;2022-12-13T10:18:36;98893.69;;;3.10;87.68
34374;BME280;20637;55.770;37.592;2022-12-13T10:21:02;98891.19;;;3.08;87.29
34374;BME280;20637;55.770;37.592;2022-12-13T10:23:29;98895.78;;;3.06;87.39
34374;BME280;20637;55.770;37.592;2022-12-13T10:25:54;98905.88;;;3.03;87.16
34374;BME280;20637;55.770;37.592;2022-12-13T10:28:25;98912.75;;;2.96;87.15
34374;BME280;20637;55.770;37.592;2022-12-13T10:30:52;98907.16;;;2.89;86.71
34374;BME280;20637;55.770;37.592;2022-12-13T10:33:22;98915.09;;;2.79;86.34
34374;BME280;20637;55.770;37.592;2022-12-13T10:38:39;98917.03;;;2.58;86.14
34374;BME280;20637;55.770;37.592;2022-12-13T10:41:25;98926.25;;;2.54;86.45
34374;BME280;20637;55.770;37.592;2022-12-13T10:46:31;98923.44;;;2.46;86.42
34374;BME280;20637;55.770;37.592;2022-12-13T10:48:57;98928.88;;;2.45;86.25
34374;BME280;20637;55.770;37.592;2022-12-13T10:51:22;98932.78;;;2.40;86.15
34374;BME280;20637;55.770;37.592;2022-12-13T10:57:18;98933.34;;;2.44;86.35
34374;BME280;20637;55.770;37.592;2022-12-13T10:59:45;98933.94;;;2.48;86.28
34374;BME280;20637;55.770;37.592;2022-12-13T11:04:49;98931.41;;;2.46;86.23
34374;BME280;20637;55.770;37.592;2022-12-13T11:09:47;98940.56;;;2.53;86.41
34374;BME280;20637;55.770;37.592;2022-12-13T11:12:14;98945.88;;;2.53;86.20
34374;BME280;20637;55.770;37.592;2022-12-13T11:14:47;98935.09;;;2.55;86.32
34374;BME280;20637;55.770;37.592;2022-12-13T11:17:15;98945.75;;;2.55;86.24
34374;BME280;20637;55.770;37.592;2022-12-13T11:19:45;98941.97;;;2.57;86.15
34374;BME280;20637;55.770;37.592;2022-12-13T11:22:25;98946.72;;;2.54;85.77
34374;BME280;20637;55.770;37.592;2022-12-13T11:25:02;98959.78;;;2.57;85.79
34374;BME280;20637;55.770;37.592;2022-12-13T11:27:38;98968.50;;;2.59;85.71
34374;BME280;20637;55.770;37.592;2022-12-13T11:30:16;98973.50;;;2.52;85.37
34374;BME280;20637;55.770;37.592;2022-12-13T11:35:30;98967.84;;;2.46;85.19
34374;BME280;20637;55.770;37.592;2022-12-13T11:38:06;98976.53;;;2.48;85.22
34374;BME280;20637;55.770;37.592;2022-12-13T11:40:45;98994.50;;;2.46;84.97
34374;BME280;20637;55.770;37.592;2022-12-13T11:43:28;99000.59;;;2.36;84.75
34374;BME280;20637;55.770;37.592;2022-12-13T11:45:57;98998.47;;;2.30;84.83
34374;BME280;20637;55.770;37.592;2022-12-13T11:48:31;98989.34;;;2.23;84.90
34374;BME280;20637;55.770;37.592;2022-12-13T11:51:00;98974.44;;;2.21;84.90
34374;BME280;20637;55.770;37.592;2022-12-13T11:53:31;98992.13;;;2.22;85.15
34374;BME280;20637;55.770;37.592;2022-12-13T11:56:06;98992.69;;;2.25;84.89
34374;BME280;20637;55.770;37.592;2022-12-13T12:01:21;99004.31;;;2.24;85.04
34374;BME280;20637;55.770;37.592;2022-12-13T12:03:57;99012.97;;;2.17;84.78
34374;BME280;20637;55.770;37.592;2022-12-13T12:06:27;99025.56;;;2.15;84.58
34374;BME280;20637;55.770;37.592;2022-12-13T12:08:55;99018.34;;;2.06;84.08
34374;BME280;20637;55.770;37.592;2022-12-13T12:13:51;99018.09;;;2.09;83.83
34374;BME280;20637;55.770;37.592;2022-12-13T12:16:24;99033.69;;;2.13;83.54
34374;BME280;20637;55.770;37.592;2022-12-13T12:18:52;99033.25;;;2.08;83.08
34374;BME280;20637;55.770;37.592;2022-12-13T12:24:34;99025.94;;;2.10;82.79
34374;BME280;20637;55.770;37.592;2022-12-13T12:29:34;99027.34;;;2.05;82.55
34374;BME280;20637;55.770;37.592;2022-12-13T12:32:30;99034.72;;;2.01;82.57
34374;BME280;20637;55.770;37.592;2022-12-13T12:49:59;99013.94;;;1.95;81.91
34374;BME280;20637;55.770;37.592;2022-12-13T12:52:35;99020.22;;;1.94;82.12
34374;BME280;20637;55.770;37.592;2022-12-13T13:00:19;99015.16;;;1.91;81.17
34374;BME280;20637;55.770;37.592;2022-12-13T13:05:29;99014.59;;;1.87;81.09
34374;BME280;20637;55.770;37.592;2022-12-13T13:08:03;98998.63;;;1.87;81.05
34374;BME280;20637;55.770;37.592;2022-12-13T13:10:31;99001.88;;;1.91;80.97
34374;BME280;20637;55.770;37.592;2022-12-13T13:12:56;99004.25;;;1.94;80.84
34374;BME280;20637;55.770;37.592;2022-12-13T13:17:57;99011.88;;;1.99;80.50
34374;BME280;20637;55.770;37.592;2022-12-13T13:20:26;99005.97;;;1.95;79.91
34374;BME280;20637;55.770;37.592;2022-12-13T13:22:55;99012.97;;;1.96;80.09
34374;BME280;20637;55.770;37.592;2022-12-13T13:25:23;99007.66;;;1.96;79.93
34374;BME280;20637;55.770;37.592;2022-12-13T13:27:50;99016.59;;;1.95;79.68
34374;BME280;20637;55.770;37.592;2022-12-13T13:32:42;99000.63;;;1.95;79.32
34374;BME280;20637;55.770;37.592;2022-12-13T13:37:56;99011.97;;;1.97;78.91
34374;BME280;20637;55.770;37.592;2022-12-13T13:40:32;99003.41;;;1.93;78.68
34374;BME280;20637;55.770;37.592;2022-12-13T13:45:24;99009.59;;;1.94;78.54
34374;BME280;20637;55.770;37.592;2022-12-13T14:03:44;99022.19;;;2.13;78.89
34374;BME280;20637;55.770;37.592;2022-12-13T14:22:03;99026.59;;;2.03;77.74
34374;BME280;20637;55.770;37.592;2022-12-13T14:24:51;99024.78;;;2.03;77.46
34374;BME280;20637;55.770;37.592;2022-12-13T14:27:20;99024.06;;;2.01;77.22
34374;BME280;20637;55.770;37.592;2022-12-13T14:29:47;99026.13;;;1.98;77.11
34374;BME280;20637;55.770;37.592;2022-12-13T14:32:47;99020.13;;;1.96;76.78
34374;BME280;20637;55.770;37.592;2022-12-13T14:35:05;99020.22;;;1.94;77.10
34374;BME280;20637;55.770;37.592;2022-12-13T14:37:32;99024.69;;;1.93;76.48
34374;BME280;20637;55.770;37.592;2022-12-13T14:39:58;99015.63;;;1.96;76.93
34374;BME280;20637;55.770;37.592;2022-12-13T14:42:28;99011.75;;;2.00;77.04
34374;BME280;20637;55.770;37.592;2022-12-13T14:45:12;99017.78;;;2.02;77.47
34374;BME280;20637;55.770;37.592;2022-12-13T14:47:41;99011.75;;;2.00;77.47
34374;BME280;20637;55.770;37.592;2022-12-13T14:50:07;99020.22;;;1.94;77.70
34374;BME280;20637;55.770;37.592;2022-12-13T14:52:35;99016.72;;;1.93;77.46
34374;BME280;20637;55.770;37.592;2022-12-13T14:55:04;99014.63;;;1.97;77.67
34374;BME280;20637;55.770;37.592;2022-12-13T14:57:31;99017.66;;;2.04;77.77
34374;BME280;20637;55.770;37.592;2022-12-13T14:59:58;99005.44;;;2.01;77.91
34374;BME280;20637;55.770;37.592;2022-12-13T15:02:24;99006.16;;;2.03;77.93